Terminal Aerodrome Forecast
Issued by NWS

Current Version | Previous Version | Text Only | Print | Product List | Glossary On
Versions: 1 2 3 4 5 6 7 8 9 10 11 12 13 14 15 16 17 18
792
FTUS43 KMPX 231120
TAFAXN
TAF
KAXN 231120Z 2312/2412 10008KT P6SM SCT100 BKN250
     FM231400 13013G18KT P6SM SCT050 BKN090
     FM232130 17011KT 2SM TSRA SCT020 BKN040CB
     FM232300 23008KT P6SM SCT040 BKN090
     FM240600 28009KT P6SM SKC=

USA.gov is the U.S. government's official web portal to all federal, state and local government web resources and services.